createdAt,value
2018-04-15T00:02:17.112Z,121.83
2018-04-15T00:04:43.008Z,154.10
2018-04-15T00:07:09.009Z,144.60
2018-04-15T00:09:34.930Z,154.90
2018-04-15T00:12:01.012Z,85.70
2018-04-15T00:14:26.928Z,88.40
2018-04-15T00:16:52.827Z,86.20
2018-04-15T00:19:18.813Z,100.37
2018-04-15T00:21:44.804Z,91.73
2018-04-15T00:24:10.688Z,94.67
2018-04-15T00:26:36.560Z,114.53
2018-04-15T00:29:02.642Z,123.77
2018-04-15T00:31:28.610Z,120.37
2018-04-15T00:33:54.568Z,110.90
2018-04-15T00:36:20.522Z,84.57
2018-04-15T00:38:46.376Z,83.97
2018-04-15T00:41:12.272Z,81.83
2018-04-15T00:43:38.260Z,119.20
2018-04-15T00:46:04.221Z,129.93
2018-04-15T00:48:30.101Z,126.60
2018-04-15T00:50:56.044Z,89.50
2018-04-15T00:53:21.977Z,96.30
2018-04-15T00:55:47.997Z,127.93
2018-04-15T00:58:13.965Z,77.83
2018-04-15T01:00:39.831Z,88.07
2018-04-15T01:03:05.727Z,104.70
2018-04-15T01:05:31.638Z,100.57
2018-04-15T01:07:57.615Z,82.47
2018-04-15T01:10:23.553Z,86.40
2018-04-15T01:12:49.923Z,80.50
2018-04-15T01:15:15.848Z,102.93
2018-04-15T01:17:41.760Z,125.03
2018-04-15T01:20:07.780Z,158.50
2018-04-15T01:22:33.735Z,116.30
2018-04-15T01:24:59.591Z,153.27
2018-04-15T01:27:25.662Z,169.03
2018-04-15T01:29:51.625Z,120.77
2018-04-15T01:32:17.611Z,107.43
2018-04-15T01:34:43.579Z,98.97
2018-04-15T01:37:09.442Z,113.63
2018-04-15T01:39:35.334Z,102.60
2018-04-15T01:42:01.281Z,161.57
2018-04-15T01:44:27.232Z,122.27
2018-04-15T01:46:53.151Z,123.27
2018-04-15T01:49:19.094Z,141.47
2018-04-15T01:51:44.989Z,136.43
2018-04-15T01:54:10.866Z,154.40
2018-04-15T01:56:36.865Z,153.60
2018-04-15T01:59:02.830Z,194.77
2018-04-15T02:01:28.701Z,159.30
2018-04-15T02:03:54.648Z,166.97
2018-04-15T02:06:20.516Z,175.37
2018-04-15T02:08:46.467Z,157.10
2018-04-15T02:11:12.829Z,185.10
2018-04-15T02:13:38.704Z,164.67
2018-04-15T02:16:05.268Z,150.80
2018-04-15T02:18:31.211Z,162.37
2018-04-15T02:20:57.191Z,161.23
2018-04-15T02:23:23.106Z,157.40
2018-04-15T02:25:49.016Z,160.07
2018-04-15T02:28:14.885Z,156.30
2018-04-15T02:30:40.823Z,182.57
2018-04-15T02:33:06.857Z,135.00
2018-04-15T02:35:32.788Z,214.17
2018-04-15T02:37:58.659Z,235.63
2018-04-15T02:40:24.574Z,231.20
2018-04-15T02:42:50.481Z,233.73
2018-04-15T02:45:16.456Z,190.03
2018-04-15T02:47:42.429Z,183.23
2018-04-15T02:50:08.338Z,193.03
2018-04-15T02:52:34.292Z,173.90
2018-04-15T02:55:00.286Z,202.27
2018-04-15T02:57:26.248Z,190.23
2018-04-15T02:59:52.216Z,201.30
2018-04-15T03:02:18.132Z,212.87
2018-04-15T03:04:44.069Z,164.53
2018-04-15T03:07:09.964Z,188.77
2018-04-15T03:09:36.302Z,212.53
2018-04-15T03:12:02.245Z,165.10
2018-04-15T03:14:28.139Z,183.57
2018-04-15T03:16:54.083Z,176.83
2018-04-15T03:19:19.964Z,159.17
2018-04-15T03:21:45.936Z,149.73
2018-04-15T03:24:11.902Z,138.90
2018-04-15T03:26:37.780Z,150.17
2018-04-15T03:29:03.699Z,151.13
2018-04-15T03:31:29.628Z,156.33
2018-04-15T03:33:55.964Z,172.37
2018-04-15T03:36:21.891Z,144.67
2018-04-15T03:38:47.804Z,173.07
2018-04-15T03:41:13.710Z,141.60
2018-04-15T03:43:39.587Z,147.60
2018-04-15T03:46:05.600Z,145.03
2018-04-15T03:48:31.531Z,148.43
2018-04-15T03:50:58.451Z,158.03
2018-04-15T03:53:24.363Z,115.67
2018-04-15T03:55:50.232Z,101.27
2018-04-15T03:58:16.179Z,107.80
2018-04-15T04:00:42.233Z,105.53
2018-04-15T04:03:08.116Z,98.53
2018-04-15T04:05:33.984Z,121.80
2018-04-15T04:08:00.510Z,112.47
2018-04-15T04:10:26.483Z,103.97
2018-04-15T04:12:52.443Z,125.17
2018-04-15T04:15:19.606Z,106.37
2018-04-15T04:17:57.747Z,117.83
2018-04-15T04:20:36.762Z,136.87
2018-04-15T04:23:15.752Z,133.33
2018-04-15T04:25:53.855Z,123.70
2018-04-15T04:28:19.719Z,132.17
2018-04-15T04:30:45.673Z,138.30
2018-04-15T04:33:11.565Z,173.57
2018-04-15T04:35:37.499Z,112.67
2018-04-15T04:38:03.421Z,146.43
2018-04-15T04:40:29.343Z,128.27
2018-04-15T04:42:55.328Z,119.57
2018-04-15T04:45:21.202Z,112.13
2018-04-15T04:47:47.466Z,132.23
2018-04-15T04:50:13.319Z,117.90
2018-04-15T04:52:39.195Z,113.93
2018-04-15T04:55:06.224Z,134.57
2018-04-15T04:57:32.101Z,138.27
2018-04-15T04:59:58.073Z,121.63
2018-04-15T05:02:23.990Z,100.13
2018-04-15T05:04:49.885Z,118.67
2018-04-15T05:07:15.859Z,126.33
2018-04-15T05:09:41.804Z,131.73
2018-04-15T05:12:07.723Z,140.07
2018-04-15T05:14:33.639Z,119.63
2018-04-15T05:16:59.570Z,121.37
2018-04-15T05:19:25.579Z,110.57
2018-04-15T05:21:51.508Z,127.27
2018-04-15T05:24:17.504Z,142.80
2018-04-15T05:26:43.420Z,139.13
2018-04-15T05:29:09.278Z,150.27
2018-04-15T05:31:35.359Z,141.20
2018-04-15T05:34:01.256Z,140.40
2018-04-15T05:36:27.243Z,140.10
2018-04-15T05:38:53.192Z,133.70
2018-04-15T05:41:19.109Z,143.90
2018-04-15T05:43:45.084Z,141.90
2018-04-15T05:46:11.352Z,144.83
2018-04-15T05:48:37.325Z,137.77
2018-04-15T05:51:03.216Z,128.27
2018-04-15T05:53:29.192Z,130.00
2018-04-15T05:55:55.143Z,120.80
2018-04-15T05:58:22.980Z,124.57
2018-04-15T06:00:48.968Z,139.83
2018-04-15T06:03:14.838Z,151.57
2018-04-15T06:05:40.735Z,156.70
2018-04-15T06:08:06.832Z,133.50
2018-04-15T06:10:32.704Z,114.40
2018-04-15T06:12:58.731Z,107.53
2018-04-15T06:15:24.952Z,102.70
2018-04-15T06:17:50.917Z,90.17
2018-04-15T06:20:16.871Z,93.63
2018-04-15T06:22:42.781Z,98.40
2018-04-15T06:25:08.701Z,97.40
2018-04-15T06:27:34.571Z,93.57
2018-04-15T06:30:00.785Z,104.40
2018-04-15T06:32:26.815Z,78.80
2018-04-15T06:34:52.708Z,93.27
2018-04-15T06:37:18.690Z,79.00
2018-04-15T06:39:44.669Z,78.90
2018-04-15T06:42:10.588Z,66.77
2018-04-15T06:44:36.584Z,69.67
2018-04-15T06:47:02.472Z,56.70
2018-04-15T06:49:28.564Z,59.50
2018-04-15T06:51:54.512Z,59.57
2018-04-15T06:54:20.379Z,54.80
2018-04-15T06:56:46.332Z,56.73
2018-04-15T06:59:12.249Z,47.33
2018-04-15T07:01:38.243Z,40.00
2018-04-15T07:04:04.124Z,38.37
2018-04-15T07:06:30.128Z,38.07
2018-04-15T07:08:56.376Z,32.13
2018-04-15T07:11:22.288Z,32.13
2018-04-15T07:13:48.395Z,34.13
2018-04-15T07:16:14.279Z,31.80
2018-04-15T07:18:40.175Z,34.10
2018-04-15T07:21:06.193Z,28.77
2018-04-15T07:23:32.063Z,25.20
2018-04-15T07:25:58.003Z,24.77
2018-04-15T07:28:23.911Z,26.23
2018-04-15T07:30:49.775Z,25.60
2018-04-15T07:33:15.730Z,30.77
2018-04-15T07:35:41.777Z,23.73
2018-04-15T07:38:07.845Z,22.03
2018-04-15T07:40:33.711Z,23.00
2018-04-15T07:42:59.634Z,23.37
2018-04-15T07:45:25.595Z,21.77
2018-04-15T07:47:51.467Z,21.30
2018-04-15T07:50:17.523Z,19.10
2018-04-15T07:52:43.428Z,18.87
2018-04-15T07:55:09.355Z,19.63
2018-04-15T07:57:36.202Z,19.00
2018-04-15T08:00:02.170Z,19.17
2018-04-15T08:02:28.152Z,17.50
2018-04-15T08:04:54.104Z,15.87
2018-04-15T08:07:21.136Z,16.53
2018-04-15T08:09:47.095Z,15.83
2018-04-15T08:12:13.035Z,16.53
2018-04-15T08:14:38.964Z,15.53
2018-04-15T08:17:04.840Z,15.80
2018-04-15T08:19:30.788Z,14.97
2018-04-15T08:21:56.785Z,15.60
2018-04-15T08:24:22.712Z,15.97
2018-04-15T08:26:48.668Z,15.57
2018-04-15T08:29:14.579Z,15.50
2018-04-15T08:31:40.481Z,17.07
2018-04-15T08:34:06.502Z,14.73
2018-04-15T08:36:32.917Z,14.17
2018-04-15T08:38:58.856Z,14.60
2018-04-15T08:41:24.814Z,14.20
2018-04-15T08:43:50.691Z,13.43
2018-04-15T08:46:16.704Z,14.97
2018-04-15T08:48:42.627Z,13.83
2018-04-15T08:51:08.547Z,13.60
2018-04-15T08:53:34.423Z,11.80
2018-04-15T08:56:00.315Z,12.53
2018-04-15T08:58:26.271Z,11.43
2018-04-15T09:00:52.160Z,12.27
2018-04-15T09:03:18.175Z,11.80
2018-04-15T09:05:44.059Z,10.17
2018-04-15T09:08:09.919Z,11.63
2018-04-15T09:10:35.930Z,10.33
2018-04-15T09:13:01.835Z,9.70
2018-04-15T09:15:27.776Z,10.43
2018-04-15T09:17:53.718Z,8.93
2018-04-15T09:20:19.616Z,9.07
2018-04-15T09:22:45.600Z,8.17
2018-04-15T09:25:11.508Z,7.43
2018-04-15T09:27:37.436Z,7.57
2018-04-15T09:30:03.354Z,7.33
2018-04-15T09:32:29.247Z,8.97
2018-04-15T09:34:55.211Z,8.10
2018-04-15T09:37:21.089Z,7.03
2018-04-15T09:39:48.081Z,6.97
2018-04-15T09:42:14.970Z,7.37
2018-04-15T09:44:40.887Z,8.30
2018-04-15T09:47:06.934Z,8.10
2018-04-15T09:49:32.812Z,8.43
2018-04-15T09:51:58.749Z,6.70
2018-04-15T09:54:24.665Z,7.17
2018-04-15T09:56:50.541Z,6.23
2018-04-15T09:59:16.592Z,6.63
2018-04-15T10:01:42.461Z,6.97
2018-04-15T10:04:08.410Z,6.37
2018-04-15T10:06:34.271Z,6.73
2018-04-15T10:09:00.174Z,6.67
2018-04-15T10:11:26.141Z,6.60
2018-04-15T10:13:52.019Z,8.27
2018-04-15T10:16:17.990Z,6.43
2018-04-15T10:18:43.893Z,5.17
2018-04-15T10:21:09.759Z,5.37
2018-04-15T10:23:35.791Z,6.57
2018-04-15T10:26:01.717Z,6.00
2018-04-15T10:28:27.635Z,5.70
2018-04-15T10:30:53.681Z,4.83
2018-04-15T10:33:19.561Z,9.33
2018-04-15T10:35:45.552Z,14.37
2018-04-15T10:38:11.475Z,6.47
2018-04-15T10:40:37.405Z,5.00
2018-04-15T10:43:03.330Z,6.23
2018-04-15T10:45:29.239Z,5.83
2018-04-15T10:47:55.202Z,8.90
2018-04-15T10:50:21.072Z,7.43
2018-04-15T10:52:47.048Z,5.20
2018-04-15T10:55:12.924Z,5.63
2018-04-15T10:57:38.804Z,4.80
2018-04-15T11:00:04.801Z,4.03
2018-04-15T11:02:30.667Z,6.23
2018-04-15T11:04:56.587Z,5.27
2018-04-15T11:07:23.268Z,4.50
2018-04-15T11:09:49.140Z,4.00
2018-04-15T11:12:15.125Z,5.03
2018-04-15T11:14:41.044Z,5.30
2018-04-15T11:17:08.105Z,5.07
2018-04-15T11:19:33.996Z,3.63
2018-04-15T11:21:59.962Z,4.53
2018-04-15T11:24:26.406Z,3.93
2018-04-15T11:26:52.262Z,8.43
2018-04-15T11:29:18.241Z,4.60
2018-04-15T11:31:44.588Z,4.27
2018-04-15T11:34:10.520Z,3.50
2018-04-15T11:36:36.568Z,5.00
2018-04-15T11:39:02.461Z,3.30
2018-04-15T11:41:28.387Z,3.70
2018-04-15T11:43:54.330Z,3.57
2018-04-15T11:46:20.291Z,3.20
2018-04-15T11:48:46.260Z,6.30
2018-04-15T11:51:12.184Z,4.00
2018-04-15T11:53:38.131Z,2.97
2018-04-15T11:56:04.015Z,4.83
2018-04-15T11:58:30.017Z,3.27
2018-04-15T12:00:56.060Z,3.90
2018-04-15T12:03:21.953Z,4.07
2018-04-15T12:05:47.943Z,4.57
2018-04-15T12:08:13.812Z,3.43
2018-04-15T12:10:39.819Z,3.97
2018-04-15T12:13:06.019Z,6.20
2018-04-15T12:15:31.908Z,4.57
2018-04-15T12:17:57.855Z,3.53
2018-04-15T12:20:23.831Z,4.03
2018-04-15T12:22:49.724Z,3.53
2018-04-15T12:25:15.733Z,5.57
2018-04-15T12:27:41.662Z,3.37
2018-04-15T12:30:08.607Z,4.10
2018-04-15T12:32:34.495Z,5.67
2018-04-15T12:35:00.529Z,5.13
2018-04-15T12:37:26.491Z,2.87
2018-04-15T12:39:52.380Z,3.13
2018-04-15T12:42:18.381Z,3.77
2018-04-15T12:44:44.236Z,5.67
2018-04-15T12:47:10.111Z,3.20
2018-04-15T12:49:36.200Z,3.50
2018-04-15T12:52:02.142Z,3.00
2018-04-15T12:54:28.075Z,3.40
2018-04-15T12:56:54.008Z,4.17
2018-04-15T12:59:19.897Z,5.23
2018-04-15T13:01:45.868Z,4.13
2018-04-15T13:04:11.800Z,3.40
2018-04-15T13:06:38.960Z,3.63
2018-04-15T13:09:04.851Z,3.37
2018-04-15T13:11:30.824Z,5.03
2018-04-15T13:13:56.791Z,3.77
2018-04-15T13:16:22.690Z,6.70
2018-04-15T13:18:48.820Z,4.53
2018-04-15T13:21:14.698Z,4.37
2018-04-15T13:23:40.595Z,4.93
2018-04-15T13:26:06.646Z,3.73
2018-04-15T13:28:32.609Z,2.90
2018-04-15T13:30:58.561Z,6.60
2018-04-15T13:33:24.491Z,8.70
2018-04-15T13:35:51.387Z,4.55
2018-04-15T13:38:17.369Z,3.60
2018-04-15T13:40:43.302Z,3.97
2018-04-15T13:43:09.672Z,5.93
2018-04-15T13:45:35.529Z,4.07
2018-04-15T13:48:01.464Z,4.50
2018-04-15T13:50:27.462Z,4.63
2018-04-15T13:52:53.337Z,3.60
2018-04-15T13:55:19.321Z,2.93
2018-04-15T13:57:45.196Z,3.23
2018-04-15T14:00:11.096Z,4.47
2018-04-15T14:02:37.120Z,4.15
2018-04-15T14:05:02.976Z,4.00
2018-04-15T14:07:28.906Z,15.90
2018-04-15T14:09:54.811Z,5.13
2018-04-15T14:12:20.681Z,21.70
2018-04-15T14:14:46.688Z,7.87
2018-04-15T14:17:12.614Z,4.27
2018-04-15T14:19:38.571Z,11.70
2018-04-15T14:22:04.452Z,3.43
2018-04-15T14:24:30.376Z,24.10
2018-04-15T14:26:56.344Z,5.57
2018-04-15T14:29:22.229Z,5.50
2018-04-15T14:31:48.205Z,6.63
2018-04-15T14:34:14.103Z,9.77
2018-04-15T14:36:39.963Z,4.63
2018-04-15T14:39:06.833Z,4.63
2018-04-15T14:41:32.713Z,5.20
2018-04-15T14:43:58.627Z,5.60
2018-04-15T14:46:24.579Z,3.30
2018-04-15T14:48:50.431Z,6.60
2018-04-15T14:51:16.371Z,5.50
2018-04-15T14:53:42.322Z,3.57
2018-04-15T14:56:08.244Z,6.10
2018-04-15T14:58:34.137Z,3.90
2018-04-15T15:01:00.051Z,4.87
2018-04-15T15:03:26.036Z,4.07
2018-04-15T15:05:51.983Z,5.70
2018-04-15T15:08:17.945Z,5.80
2018-04-15T15:10:43.907Z,5.97
2018-04-15T15:13:09.832Z,5.70
2018-04-15T15:15:35.832Z,5.93
2018-04-15T15:18:01.688Z,7.73
2018-04-15T15:20:27.716Z,6.43
2018-04-15T15:22:53.807Z,8.00
2018-04-15T15:25:19.720Z,6.10
2018-04-15T15:27:47.887Z,6.53
2018-04-15T15:30:14.042Z,4.80
2018-04-15T15:32:40.049Z,5.37
2018-04-15T15:35:05.911Z,6.63
2018-04-15T15:37:31.836Z,6.73
2018-04-15T15:39:58.026Z,3.30
2018-04-15T15:42:23.954Z,4.67
2018-04-15T15:44:51.029Z,4.73
2018-04-15T15:47:16.916Z,3.60
2018-04-15T15:49:42.814Z,4.07
2018-04-15T15:52:08.841Z,9.07
2018-04-15T15:54:34.729Z,7.03
2018-04-15T15:57:00.666Z,7.00
2018-04-15T15:59:26.600Z,7.13
2018-04-15T16:01:52.483Z,4.90
2018-04-15T16:04:18.441Z,7.17
2018-04-15T16:06:44.369Z,7.33
2018-04-15T16:09:10.324Z,5.77
2018-04-15T16:11:36.179Z,5.07
2018-04-15T16:14:02.138Z,4.93
2018-04-15T16:16:28.100Z,4.73
2018-04-15T16:18:53.980Z,5.50
2018-04-15T16:21:19.960Z,7.40
2018-04-15T16:23:45.894Z,9.33
2018-04-15T16:26:11.761Z,10.83
2018-04-15T16:28:37.764Z,5.03
2018-04-15T16:31:03.648Z,5.90
2018-04-15T16:33:29.567Z,5.33
2018-04-15T16:35:55.497Z,5.93
2018-04-15T16:38:22.594Z,5.27
2018-04-15T16:40:48.685Z,4.50
2018-04-15T16:43:14.631Z,11.07
2018-04-15T16:45:40.599Z,10.87
2018-04-15T16:48:06.489Z,6.47
2018-04-15T16:50:32.797Z,8.77
2018-04-15T16:52:58.748Z,5.53
2018-04-15T16:55:24.612Z,4.60
2018-04-15T16:57:50.596Z,5.90
2018-04-15T17:00:16.487Z,5.13
2018-04-15T17:02:42.364Z,5.10
2018-04-15T17:05:08.715Z,4.80
2018-04-15T17:07:34.584Z,10.83
2018-04-15T17:10:00.509Z,4.97
2018-04-15T17:12:26.438Z,6.23
2018-04-15T17:14:52.337Z,10.23
2018-04-15T17:17:18.293Z,7.87
2018-04-15T17:19:44.214Z,15.00
2018-04-15T17:22:10.222Z,9.50
2018-04-15T17:24:36.082Z,14.77
2018-04-15T17:27:01.988Z,17.57
2018-04-15T17:29:27.974Z,15.27
2018-04-15T17:31:54.015Z,17.13
2018-04-15T17:34:21.299Z,13.27
2018-04-15T17:36:47.256Z,17.80
2018-04-15T17:39:13.136Z,9.03
2018-04-15T17:41:39.308Z,15.47
2018-04-15T17:44:05.176Z,14.10
2018-04-15T17:46:31.132Z,13.13
2018-04-15T17:48:57.057Z,12.97
2018-04-15T17:51:22.925Z,12.33
2018-04-15T17:53:48.868Z,15.63
2018-04-15T17:56:14.785Z,12.00
2018-04-15T17:58:40.711Z,11.40
2018-04-15T18:01:06.609Z,17.13
2018-04-15T18:03:32.563Z,8.83
2018-04-15T18:05:58.531Z,8.97
2018-04-15T18:08:24.402Z,14.13
2018-04-15T18:10:50.538Z,10.07
2018-04-15T18:13:16.454Z,13.50
2018-04-15T18:15:42.316Z,10.03
2018-04-15T18:18:08.325Z,12.50
2018-04-15T18:20:34.243Z,13.73
2018-04-15T18:23:00.192Z,12.53
2018-04-15T18:25:26.174Z,10.03
2018-04-15T18:27:52.039Z,14.30
2018-04-15T18:30:18.019Z,11.60
2018-04-15T18:32:43.924Z,16.80
2018-04-15T18:35:09.893Z,28.00
2018-04-15T18:37:35.762Z,20.70
2018-04-15T18:40:01.677Z,14.53
2018-04-15T18:42:27.645Z,20.77
2018-04-15T18:44:53.606Z,18.87
2018-04-15T18:47:19.588Z,10.00
2018-04-15T18:49:45.473Z,17.97
2018-04-15T18:52:11.336Z,20.37
2018-04-15T18:54:37.341Z,21.20
2018-04-15T18:57:03.242Z,16.37
2018-04-15T18:59:29.180Z,19.73
2018-04-15T19:01:55.104Z,26.03
2018-04-15T19:04:20.972Z,32.73
2018-04-15T19:06:46.951Z,38.77
2018-04-15T19:09:12.863Z,31.07
2018-04-15T19:11:38.804Z,34.67
2018-04-15T19:14:04.695Z,35.67
2018-04-15T19:16:30.672Z,39.77
2018-04-15T19:18:57.171Z,23.57
2018-04-15T19:21:23.249Z,22.87
2018-04-15T19:23:49.204Z,18.63
2018-04-15T19:26:15.094Z,24.10
2018-04-15T19:28:40.947Z,24.90
2018-04-15T19:31:07.047Z,15.40
2018-04-15T19:33:33.236Z,21.07
2018-04-15T19:35:59.145Z,20.67
2018-04-15T19:38:25.064Z,26.80
2018-04-15T19:40:50.934Z,20.63
2018-04-15T19:43:16.933Z,29.83
2018-04-15T19:45:42.865Z,23.23
2018-04-15T19:48:08.824Z,24.13
2018-04-15T19:50:34.721Z,22.50
2018-04-15T19:53:00.871Z,20.33
2018-04-15T19:55:27.670Z,34.70
2018-04-15T19:57:53.581Z,26.10
2018-04-15T20:00:19.572Z,28.97
2018-04-15T20:02:45.476Z,25.17
2018-04-15T20:05:11.364Z,23.63
2018-04-15T20:07:37.366Z,25.37
2018-04-15T20:10:03.297Z,22.07
2018-04-15T20:12:29.263Z,28.07
2018-04-15T20:14:55.409Z,28.47
2018-04-15T20:17:21.496Z,22.03
2018-04-15T20:19:47.553Z,22.03
2018-04-15T20:22:13.484Z,17.93
2018-04-15T20:24:43.864Z,20.27
2018-04-15T20:27:09.744Z,29.07
2018-04-15T20:29:35.638Z,21.70
2018-04-15T20:32:01.588Z,20.97
2018-04-15T20:34:27.494Z,21.33
2018-04-15T20:36:53.478Z,20.40
2018-04-15T20:39:19.388Z,18.80
2018-04-15T20:41:45.287Z,23.43
2018-04-15T20:44:11.352Z,22.10
2018-04-15T20:46:37.235Z,19.93
2018-04-15T20:49:03.189Z,20.80
2018-04-15T20:51:29.188Z,20.50
2018-04-15T20:53:55.059Z,15.17
2018-04-15T20:56:21.867Z,17.73
2018-04-15T20:58:47.790Z,16.27
2018-04-15T21:01:13.737Z,13.90
2018-04-15T21:03:39.624Z,23.00
2018-04-15T21:06:06.971Z,13.63
2018-04-15T21:08:32.923Z,19.17
2018-04-15T21:10:58.825Z,21.73
2018-04-15T21:13:24.783Z,26.40
2018-04-15T21:15:50.655Z,27.10
2018-04-15T21:18:16.551Z,18.60
2018-04-15T21:20:42.567Z,16.40
2018-04-15T21:23:08.419Z,15.80
2018-04-15T21:25:34.354Z,18.40
2018-04-15T21:28:00.293Z,17.97
2018-04-15T21:30:26.175Z,22.90
2018-04-15T21:32:52.145Z,26.43
2018-04-15T21:35:18.056Z,23.63
2018-04-15T21:37:43.995Z,23.03
2018-04-15T21:40:10.912Z,19.17
2018-04-15T21:42:36.837Z,18.50
2018-04-15T21:45:02.818Z,17.37
2018-04-15T21:47:28.707Z,20.93
2018-04-15T21:49:54.661Z,20.90
2018-04-15T21:52:20.556Z,12.97
2018-04-15T21:54:46.415Z,17.80
2018-04-15T21:57:12.439Z,22.83
2018-04-15T21:59:38.368Z,22.47
2018-04-15T22:02:04.320Z,13.40
2018-04-15T22:04:30.261Z,12.60
2018-04-15T22:06:56.124Z,21.20
2018-04-15T22:09:22.081Z,16.73
2018-04-15T22:12:00.371Z,15.90
2018-04-15T22:14:26.320Z,13.00
2018-04-15T22:16:52.210Z,19.07
2018-04-15T22:19:18.128Z,18.90
2018-04-15T22:21:44.100Z,19.47
2018-04-15T22:24:09.994Z,15.70
2018-04-15T22:26:35.994Z,14.40
2018-04-15T22:29:01.873Z,18.77
2018-04-15T22:31:27.815Z,24.43
2018-04-15T22:33:53.832Z,18.57
2018-04-15T22:36:19.726Z,22.73
2018-04-15T22:38:45.673Z,13.53
2018-04-15T22:41:11.602Z,18.97
2018-04-15T22:43:37.476Z,19.50
2018-04-15T22:46:03.453Z,20.00
2018-04-15T22:48:35.484Z,14.10
2018-04-15T22:51:01.410Z,17.77
2018-04-15T22:53:27.313Z,15.20
2018-04-15T22:55:54.327Z,14.97
2018-04-15T22:58:21.097Z,12.83
2018-04-15T23:00:46.963Z,12.77
2018-04-15T23:03:12.956Z,18.03
2018-04-15T23:05:38.836Z,14.67
2018-04-15T23:08:04.705Z,14.63
2018-04-15T23:10:30.712Z,15.80
2018-04-15T23:12:56.606Z,16.63
2018-04-15T23:15:22.568Z,15.83
2018-04-15T23:17:48.484Z,18.07
2018-04-15T23:20:14.363Z,17.57
2018-04-15T23:22:40.321Z,16.50
2018-04-15T23:25:06.623Z,17.10
2018-04-15T23:27:32.552Z,18.40
2018-04-15T23:29:58.445Z,19.53
2018-04-15T23:32:24.363Z,16.47
2018-04-15T23:34:50.299Z,18.73
2018-04-15T23:37:16.196Z,16.40
2018-04-15T23:39:42.175Z,14.63
2018-04-15T23:42:08.043Z,17.20
2018-04-15T23:44:33.934Z,17.53
2018-04-15T23:47:00.097Z,16.33
2018-04-15T23:49:26.016Z,16.90
2018-04-15T23:51:51.935Z,16.10
2018-04-15T23:54:17.859Z,17.50
2018-04-15T23:56:49.921Z,16.00
2018-04-15T23:59:15.859Z,16.10
